createdAt,value
2023-02-16T00:02:14.772Z,-1.40
2023-02-16T00:07:16.559Z,-1.50
2023-02-16T00:12:39.864Z,-1.50
2023-02-16T00:17:41.594Z,-1.50
2023-02-16T00:22:43.810Z,-1.50
2023-02-16T00:27:45.606Z,-1.50
2023-02-16T00:32:47.517Z,-1.50
2023-02-16T00:37:49.666Z,-1.50
2023-02-16T00:42:51.449Z,-1.60
2023-02-16T00:47:54.192Z,-1.60
2023-02-16T00:52:58.448Z,-1.60
2023-02-16T00:58:11.760Z,-1.60
2023-02-16T01:03:19.266Z,-1.60
2023-02-16T01:08:59.426Z,-1.80
2023-02-16T01:14:01.318Z,-1.80
2023-02-16T01:19:03.411Z,-1.80
2023-02-16T01:24:05.597Z,-1.80
2023-02-16T01:29:07.855Z,-1.80
2023-02-16T01:34:10.314Z,-1.90
2023-02-16T01:39:14.779Z,-1.90
2023-02-16T01:44:27.475Z,-1.90
2023-02-16T01:49:29.285Z,-1.90
2023-02-16T01:54:50.966Z,-2.00
2023-02-16T01:59:55.848Z,-2.00
2023-02-16T02:05:22.176Z,-2.00
2023-02-16T02:10:39.336Z,-2.00
2023-02-16T02:15:41.187Z,-2.00
2023-02-16T02:21:27.652Z,-2.10
2023-02-16T02:26:49.186Z,-2.10
2023-02-16T02:32:05.048Z,-2.10
2023-02-16T02:37:22.959Z,-2.10
2023-02-16T02:42:53.178Z,-2.10
2023-02-16T02:47:55.711Z,-2.10
2023-02-16T02:53:03.508Z,-2.00
2023-02-16T02:58:25.112Z,-2.00
2023-02-16T03:03:33.079Z,-2.00
2023-02-16T03:08:38.146Z,-2.00
2023-02-16T03:13:45.933Z,-2.10
2023-02-16T03:19:07.634Z,-2.20
2023-02-16T03:24:32.297Z,-2.20
2023-02-16T03:29:36.013Z,-2.30
2023-02-16T03:34:37.992Z,-2.40
2023-02-16T03:39:58.454Z,-2.50
2023-02-16T03:45:00.633Z,-2.50
2023-02-16T03:50:02.493Z,-2.40
2023-02-16T03:55:04.504Z,-2.40
2023-02-16T04:00:07.255Z,-2.40
2023-02-16T04:05:14.863Z,-2.40
2023-02-16T04:10:17.042Z,-2.40
2023-02-16T04:15:22.056Z,-2.50
2023-02-16T04:20:27.559Z,-2.50
2023-02-16T04:25:29.414Z,-2.50
2023-02-16T04:30:32.211Z,-2.50
2023-02-16T04:35:34.098Z,-2.50
2023-02-16T04:40:35.909Z,-2.40
2023-02-16T04:45:37.674Z,-2.50
2023-02-16T04:50:39.487Z,-2.50
2023-02-16T04:55:46.720Z,-2.50
2023-02-16T05:00:48.523Z,-2.50
2023-02-16T05:05:50.355Z,-2.60
2023-02-16T05:11:10.577Z,-2.70
2023-02-16T05:16:12.422Z,-2.70
2023-02-16T05:21:40.367Z,-2.60
2023-02-16T05:26:42.127Z,-2.60
2023-02-16T05:31:43.994Z,-2.60
2023-02-16T05:36:45.802Z,-2.60
2023-02-16T05:41:47.731Z,-2.60
2023-02-16T05:46:49.794Z,-2.70
2023-02-16T05:51:51.959Z,-2.70
2023-02-16T05:56:53.798Z,-2.70
2023-02-16T06:01:55.560Z,-2.60
2023-02-16T06:06:57.290Z,-2.60
2023-02-16T06:11:59.041Z,-2.60
2023-02-16T06:17:01.480Z,-2.60
2023-02-16T06:22:03.294Z,-2.70
2023-02-16T06:27:05.517Z,-2.70
2023-02-16T06:32:07.520Z,-2.60
2023-02-16T06:37:09.317Z,-2.50
2023-02-16T06:42:11.125Z,-2.60
2023-02-16T06:47:12.903Z,-2.60
2023-02-16T06:52:14.648Z,-2.50
2023-02-16T06:57:16.503Z,-2.60
2023-02-16T07:02:18.268Z,-2.50
2023-02-16T07:07:20.135Z,-2.50
2023-02-16T07:12:21.917Z,-2.50
2023-02-16T07:17:24.790Z,-2.60
2023-02-16T07:22:26.660Z,-2.60
2023-02-16T07:27:28.418Z,-2.50
2023-02-16T07:32:30.679Z,-2.40
2023-02-16T07:37:32.495Z,-2.30
2023-02-16T07:42:34.476Z,-2.30
2023-02-16T07:47:38.303Z,-2.20
2023-02-16T07:52:40.128Z,-2.10
2023-02-16T07:57:42.103Z,-2.00
2023-02-16T08:02:43.967Z,-2.00
2023-02-16T08:07:46.813Z,-2.00
2023-02-16T08:12:49.865Z,-1.90
2023-02-16T08:17:51.656Z,-1.80
2023-02-16T08:22:54.714Z,-1.90
2023-02-16T08:27:56.482Z,-1.80
2023-02-16T08:33:01.016Z,-1.70
2023-02-16T08:38:02.841Z,-1.60
2023-02-16T08:43:04.606Z,-1.60
2023-02-16T08:48:06.682Z,-1.50
2023-02-16T08:53:08.792Z,-1.40
2023-02-16T08:58:10.587Z,-1.40
2023-02-16T09:03:12.374Z,-1.30
2023-02-16T09:08:14.371Z,-1.10
2023-02-16T09:13:16.329Z,-1.10
2023-02-16T09:18:18.221Z,-1.10
2023-02-16T09:23:21.949Z,-1.00
2023-02-16T09:28:23.743Z,-0.90
2023-02-16T09:33:26.208Z,-0.90
2023-02-16T09:38:28.297Z,-0.90
2023-02-16T09:44:07.019Z,-0.80
2023-02-16T09:49:40.758Z,-0.60
2023-02-16T09:55:01.407Z,-0.50
2023-02-16T10:00:16.293Z,-0.40
2023-02-16T10:05:23.398Z,-0.40
2023-02-16T10:10:32.820Z,-0.50
2023-02-16T10:15:37.570Z,-0.40
2023-02-16T10:20:43.487Z,-0.50
2023-02-16T10:25:55.564Z,-0.50
2023-02-16T10:31:14.903Z,-0.40
2023-02-16T10:36:32.935Z,-0.30
2023-02-16T10:41:44.176Z,-0.20
2023-02-16T10:46:54.050Z,-0.20
2023-02-16T10:51:57.208Z,-0.10
2023-02-16T10:57:07.373Z,-0.20
2023-02-16T11:02:23.583Z,-0.10
2023-02-16T11:07:28.301Z,0.00
2023-02-16T11:12:38.467Z,0.10
2023-02-16T11:18:08.052Z,0.30
2023-02-16T11:23:22.992Z,0.40
2023-02-16T11:28:34.161Z,0.40
2023-02-16T11:33:37.764Z,0.40
2023-02-16T11:38:39.699Z,0.60
2023-02-16T11:43:42.686Z,0.60
2023-02-16T11:48:45.516Z,0.40
2023-02-16T11:54:04.457Z,0.50
2023-02-16T11:59:23.305Z,0.50
2023-02-16T12:04:46.170Z,0.60
2023-02-16T12:10:10.026Z,0.50
2023-02-16T12:15:14.553Z,0.50
2023-02-16T12:21:09.987Z,0.60
2023-02-16T12:26:28.415Z,0.70
2023-02-16T12:32:07.344Z,0.80
2023-02-16T12:37:36.387Z,1.00
2023-02-16T12:42:54.298Z,1.10
2023-02-16T12:48:01.602Z,1.00
2023-02-16T12:53:27.589Z,1.10
2023-02-16T12:58:42.429Z,1.20
2023-02-16T13:03:59.131Z,1.20
2023-02-16T13:09:26.030Z,1.10
2023-02-16T13:14:31.632Z,1.20
2023-02-16T13:19:33.387Z,1.20
2023-02-16T13:24:35.095Z,1.10
2023-02-16T13:29:53.479Z,1.10
2023-02-16T13:35:29.910Z,1.20
2023-02-16T13:40:41.516Z,1.10
2023-02-16T13:45:46.886Z,1.00
2023-02-16T13:50:59.740Z,1.10
2023-02-16T13:56:29.930Z,1.10
2023-02-16T14:01:31.945Z,1.10
2023-02-16T14:06:39.998Z,1.10
2023-02-16T14:11:54.027Z,1.10
2023-02-16T14:16:56.189Z,1.10
2023-02-16T14:22:11.846Z,1.10
2023-02-16T14:27:13.626Z,1.00
2023-02-16T14:32:38.572Z,1.00
2023-02-16T14:37:51.246Z,1.00
2023-02-16T14:42:57.034Z,1.00
2023-02-16T14:48:07.720Z,1.00
2023-02-16T14:53:37.279Z,1.00
2023-02-16T14:58:54.429Z,1.00
2023-02-16T15:03:58.012Z,1.00
2023-02-16T15:09:13.432Z,1.00
2023-02-16T15:14:15.932Z,1.10
2023-02-16T15:19:23.826Z,1.00
2023-02-16T15:24:25.855Z,1.00
2023-02-16T15:29:29.315Z,1.00
2023-02-16T15:34:34.907Z,0.90
2023-02-16T15:39:49.744Z,0.80
2023-02-16T15:44:58.072Z,0.80
2023-02-16T15:50:11.878Z,0.60
2023-02-16T15:55:14.041Z,0.60
2023-02-16T16:00:19.463Z,0.60
2023-02-16T16:05:28.137Z,0.50
2023-02-16T16:10:32.972Z,0.50
2023-02-16T16:15:41.616Z,0.40
2023-02-16T16:20:44.508Z,0.30
2023-02-16T16:25:48.747Z,0.20
2023-02-16T16:31:09.876Z,0.10
2023-02-16T16:36:12.409Z,0.10
2023-02-16T16:41:28.220Z,0.00
2023-02-16T16:46:33.655Z,-0.10
2023-02-16T16:51:42.462Z,-0.10
2023-02-16T16:56:46.556Z,-0.10
2023-02-16T17:01:53.716Z,-0.20
2023-02-16T17:06:56.146Z,-0.20
2023-02-16T17:11:58.620Z,-0.20
2023-02-16T17:17:00.457Z,-0.30
2023-02-16T17:22:02.279Z,-0.40
2023-02-16T17:27:04.081Z,-0.40
2023-02-16T17:32:05.859Z,-0.50
2023-02-16T17:37:07.818Z,-0.50
2023-02-16T17:42:12.696Z,-0.50
2023-02-16T17:47:16.721Z,-0.50
2023-02-16T17:52:18.510Z,-0.40
2023-02-16T17:57:20.384Z,-0.50
2023-02-16T18:02:22.122Z,-0.50
2023-02-16T18:07:23.967Z,-0.50
2023-02-16T18:12:28.142Z,-0.50
2023-02-16T18:17:30.247Z,-0.50
2023-02-16T18:22:32.393Z,-0.50
2023-02-16T18:27:34.167Z,-0.50
2023-02-16T18:32:36.429Z,-0.50
2023-02-16T18:37:38.706Z,-0.50
2023-02-16T18:42:40.575Z,-0.50
2023-02-16T18:47:45.035Z,-0.50
2023-02-16T18:52:47.624Z,-0.50
2023-02-16T18:57:49.406Z,-0.50
2023-02-16T19:02:51.380Z,-0.40
2023-02-16T19:07:53.286Z,-0.40
2023-02-16T19:12:55.108Z,-0.40
2023-02-16T19:17:56.890Z,-0.40
2023-02-16T19:22:58.812Z,-0.40
2023-02-16T19:28:00.585Z,-0.40
2023-02-16T19:33:02.663Z,-0.50
2023-02-16T19:38:04.451Z,-0.50
2023-02-16T19:43:06.346Z,-0.50
2023-02-16T19:48:08.205Z,-0.50
2023-02-16T19:53:10.016Z,-0.50
2023-02-16T19:58:11.782Z,-0.50
2023-02-16T20:03:13.868Z,-0.50
2023-02-16T20:08:15.655Z,-0.50
2023-02-16T20:13:17.417Z,-0.50
2023-02-16T20:18:19.299Z,-0.50
2023-02-16T20:23:21.166Z,-0.40
2023-02-16T20:28:24.461Z,-0.40
2023-02-16T20:33:26.203Z,-0.40
2023-02-16T20:38:28.000Z,-0.40
2023-02-16T20:43:30.407Z,-0.50
2023-02-16T20:48:32.838Z,-0.50
2023-02-16T20:53:34.965Z,-0.50
2023-02-16T20:58:37.037Z,-0.50
2023-02-16T21:03:38.936Z,-0.40
2023-02-16T21:08:40.815Z,-0.40
2023-02-16T21:13:43.688Z,-0.30
2023-02-16T21:18:45.849Z,-0.30
2023-02-16T21:23:50.843Z,-0.20
2023-02-16T21:28:53.096Z,-0.20
2023-02-16T21:33:55.040Z,-0.20
2023-02-16T21:38:56.865Z,-0.10
2023-02-16T21:44:07.549Z,-0.10
2023-02-16T21:49:18.283Z,0.00
2023-02-16T21:54:40.077Z,0.00
2023-02-16T21:59:41.938Z,0.10
2023-02-16T22:04:43.814Z,0.10
2023-02-16T22:09:46.370Z,0.10
2023-02-16T22:14:48.128Z,0.20
2023-02-16T22:19:50.358Z,0.20
2023-02-16T22:24:52.117Z,0.30
2023-02-16T22:29:53.907Z,0.40
2023-02-16T22:34:55.738Z,0.40
2023-02-16T22:39:57.491Z,0.50
2023-02-16T22:44:59.258Z,0.50
2023-02-16T22:50:00.992Z,0.50
2023-02-16T22:55:02.843Z,0.50
2023-02-16T23:00:08.754Z,0.50
2023-02-16T23:05:10.574Z,0.60
2023-02-16T23:10:12.322Z,0.60
2023-02-16T23:15:14.080Z,0.70
2023-02-16T23:20:15.949Z,0.70
2023-02-16T23:25:32.876Z,0.70
2023-02-16T23:30:34.739Z,0.70
2023-02-16T23:35:39.018Z,0.70
2023-02-16T23:40:42.191Z,0.70
2023-02-16T23:45:44.877Z,0.80
2023-02-16T23:50:46.818Z,0.80
2023-02-16T23:56:16.298Z,0.80
